sensor_id;sensor_type;location;lat;lon;timestamp;P1;durP1;ratioP1;P2;durP2;ratioP2
8683;SDS011;4379;59.744;18.206;2023-05-07T00:02:03;1.90;;;1.70;;
8683;SDS011;4379;59.744;18.206;2023-05-07T00:04:30;2.20;;;2.00;;
8683;SDS011;4379;59.744;18.206;2023-05-07T00:07:03;1.83;;;1.77;;
8683;SDS011;4379;59.744;18.206;2023-05-07T00:09:31;1.87;;;1.77;;
8683;SDS011;4379;59.744;18.206;2023-05-07T00:11:58;1.90;;;1.80;;
8683;SDS011;4379;59.744;18.206;2023-05-07T00:14:26;2.63;;;1.63;;
8683;SDS011;4379;59.744;18.206;2023-05-07T00:16:53;1.93;;;1.83;;
8683;SDS011;4379;59.744;18.206;2023-05-07T00:19:20;2.00;;;1.80;;
8683;SDS011;4379;59.744;18.206;2023-05-07T00:21:47;2.10;;;2.00;;
8683;SDS011;4379;59.744;18.206;2023-05-07T00:24:15;1.90;;;1.80;;
8683;SDS011;4379;59.744;18.206;2023-05-07T00:26:45;1.90;;;1.80;;
8683;SDS011;4379;59.744;18.206;2023-05-07T00:29:12;1.80;;;1.70;;
8683;SDS011;4379;59.744;18.206;2023-05-07T00:31:39;2.27;;;2.10;;
8683;SDS011;4379;59.744;18.206;2023-05-07T00:34:07;2.63;;;1.77;;
8683;SDS011;4379;59.744;18.206;2023-05-07T00:36:34;2.07;;;1.77;;
8683;SDS011;4379;59.744;18.206;2023-05-07T00:39:01;1.87;;;1.70;;
8683;SDS011;4379;59.744;18.206;2023-05-07T00:41:30;2.17;;;1.97;;
8683;SDS011;4379;59.744;18.206;2023-05-07T00:43:57;1.87;;;1.77;;
8683;SDS011;4379;59.744;18.206;2023-05-07T00:46:25;2.07;;;1.97;;
8683;SDS011;4379;59.744;18.206;2023-05-07T00:48:52;2.40;;;2.10;;
8683;SDS011;4379;59.744;18.206;2023-05-07T00:51:20;1.60;;;1.53;;
8683;SDS011;4379;59.744;18.206;2023-05-07T00:53:49;1.93;;;1.83;;
8683;SDS011;4379;59.744;18.206;2023-05-07T00:56:16;1.83;;;1.73;;
8683;SDS011;4379;59.744;18.206;2023-05-07T00:58:44;2.10;;;2.00;;
8683;SDS011;4379;59.744;18.206;2023-05-07T01:01:11;1.90;;;1.70;;
8683;SDS011;4379;59.744;18.206;2023-05-07T01:03:43;2.57;;;1.80;;
8683;SDS011;4379;59.744;18.206;2023-05-07T01:06:13;1.80;;;1.70;;
8683;SDS011;4379;59.744;18.206;2023-05-07T01:08:43;2.20;;;2.10;;
8683;SDS011;4379;59.744;18.206;2023-05-07T01:11:11;1.80;;;1.70;;
8683;SDS011;4379;59.744;18.206;2023-05-07T01:13:39;2.03;;;1.93;;
8683;SDS011;4379;59.744;18.206;2023-05-07T01:16:08;2.00;;;1.90;;
8683;SDS011;4379;59.744;18.206;2023-05-07T01:18:36;2.20;;;2.10;;
8683;SDS011;4379;59.744;18.206;2023-05-07T01:21:04;1.87;;;1.80;;
8683;SDS011;4379;59.744;18.206;2023-05-07T01:23:31;2.13;;;2.03;;
8683;SDS011;4379;59.744;18.206;2023-05-07T01:26:00;1.97;;;1.87;;
8683;SDS011;4379;59.744;18.206;2023-05-07T01:28:27;2.17;;;2.07;;
8683;SDS011;4379;59.744;18.206;2023-05-07T01:30:55;2.20;;;2.00;;
8683;SDS011;4379;59.744;18.206;2023-05-07T01:33:29;2.07;;;1.97;;
8683;SDS011;4379;59.744;18.206;2023-05-07T01:35:58;2.00;;;1.90;;
8683;SDS011;4379;59.744;18.206;2023-05-07T01:38:32;2.30;;;2.10;;
8683;SDS011;4379;59.744;18.206;2023-05-07T01:41:01;1.90;;;1.80;;
8683;SDS011;4379;59.744;18.206;2023-05-07T01:43:28;2.20;;;2.10;;
8683;SDS011;4379;59.744;18.206;2023-05-07T01:45:57;2.20;;;1.90;;
8683;SDS011;4379;59.744;18.206;2023-05-07T01:48:25;2.10;;;1.90;;
8683;SDS011;4379;59.744;18.206;2023-05-07T01:50:53;2.10;;;2.00;;
8683;SDS011;4379;59.744;18.206;2023-05-07T01:53:21;2.13;;;2.03;;
8683;SDS011;4379;59.744;18.206;2023-05-07T01:55:48;2.03;;;1.93;;
8683;SDS011;4379;59.744;18.206;2023-05-07T01:58:15;2.60;;;2.00;;
8683;SDS011;4379;59.744;18.206;2023-05-07T02:00:42;1.90;;;1.80;;
8683;SDS011;4379;59.744;18.206;2023-05-07T02:03:10;1.70;;;1.60;;
8683;SDS011;4379;59.744;18.206;2023-05-07T02:05:37;2.13;;;2.03;;
8683;SDS011;4379;59.744;18.206;2023-05-07T02:08:04;2.10;;;2.00;;
8683;SDS011;4379;59.744;18.206;2023-05-07T02:10:31;1.90;;;1.80;;
8683;SDS011;4379;59.744;18.206;2023-05-07T02:12:59;2.60;;;2.17;;
8683;SDS011;4379;59.744;18.206;2023-05-07T02:15:28;2.20;;;2.10;;
8683;SDS011;4379;59.744;18.206;2023-05-07T02:17:59;2.63;;;2.20;;
8683;SDS011;4379;59.744;18.206;2023-05-07T02:20:27;2.03;;;1.93;;
8683;SDS011;4379;59.744;18.206;2023-05-07T02:22:54;2.20;;;2.10;;
8683;SDS011;4379;59.744;18.206;2023-05-07T02:25:21;1.97;;;1.87;;
8683;SDS011;4379;59.744;18.206;2023-05-07T02:27:48;2.00;;;1.90;;
8683;SDS011;4379;59.744;18.206;2023-05-07T02:30:16;2.13;;;1.97;;
8683;SDS011;4379;59.744;18.206;2023-05-07T02:32:43;2.07;;;1.97;;
8683;SDS011;4379;59.744;18.206;2023-05-07T02:35:11;1.97;;;1.73;;
8683;SDS011;4379;59.744;18.206;2023-05-07T02:37:38;1.93;;;1.83;;
8683;SDS011;4379;59.744;18.206;2023-05-07T02:40:08;2.27;;;2.07;;
8683;SDS011;4379;59.744;18.206;2023-05-07T02:42:37;2.20;;;2.10;;
8683;SDS011;4379;59.744;18.206;2023-05-07T02:45:05;2.10;;;2.00;;
8683;SDS011;4379;59.744;18.206;2023-05-07T02:47:32;2.37;;;2.20;;
8683;SDS011;4379;59.744;18.206;2023-05-07T02:50:00;2.30;;;2.20;;
8683;SDS011;4379;59.744;18.206;2023-05-07T02:52:27;2.23;;;1.93;;
8683;SDS011;4379;59.744;18.206;2023-05-07T02:54:54;1.87;;;1.77;;
8683;SDS011;4379;59.744;18.206;2023-05-07T02:57:21;2.00;;;1.90;;
8683;SDS011;4379;59.744;18.206;2023-05-07T02:59:49;1.93;;;1.83;;
8683;SDS011;4379;59.744;18.206;2023-05-07T03:02:16;2.40;;;2.30;;
8683;SDS011;4379;59.744;18.206;2023-05-07T03:04:43;2.30;;;2.20;;
8683;SDS011;4379;59.744;18.206;2023-05-07T03:07:10;3.03;;;2.27;;
8683;SDS011;4379;59.744;18.206;2023-05-07T03:09:37;1.70;;;1.60;;
8683;SDS011;4379;59.744;18.206;2023-05-07T03:12:05;2.10;;;2.00;;
8683;SDS011;4379;59.744;18.206;2023-05-07T03:14:32;2.73;;;1.93;;
8683;SDS011;4379;59.744;18.206;2023-05-07T03:16:59;2.27;;;2.17;;
8683;SDS011;4379;59.744;18.206;2023-05-07T03:19:27;1.80;;;1.70;;
8683;SDS011;4379;59.744;18.206;2023-05-07T03:21:54;2.10;;;2.00;;
8683;SDS011;4379;59.744;18.206;2023-05-07T03:24:21;2.10;;;2.00;;
8683;SDS011;4379;59.744;18.206;2023-05-07T03:26:49;1.90;;;1.80;;
8683;SDS011;4379;59.744;18.206;2023-05-07T03:29:16;2.53;;;2.03;;
8683;SDS011;4379;59.744;18.206;2023-05-07T03:31:43;1.97;;;1.87;;
8683;SDS011;4379;59.744;18.206;2023-05-07T03:34:11;2.43;;;2.23;;
8683;SDS011;4379;59.744;18.206;2023-05-07T03:36:41;2.00;;;1.90;;
8683;SDS011;4379;59.744;18.206;2023-05-07T03:39:08;2.10;;;2.00;;
8683;SDS011;4379;59.744;18.206;2023-05-07T03:41:35;2.03;;;1.93;;
8683;SDS011;4379;59.744;18.206;2023-05-07T03:44:02;2.33;;;2.17;;
8683;SDS011;4379;59.744;18.206;2023-05-07T03:46:30;2.40;;;2.20;;
8683;SDS011;4379;59.744;18.206;2023-05-07T03:48:59;2.43;;;2.23;;
8683;SDS011;4379;59.744;18.206;2023-05-07T03:51:29;2.20;;;2.10;;
8683;SDS011;4379;59.744;18.206;2023-05-07T03:53:57;2.50;;;2.30;;
8683;SDS011;4379;59.744;18.206;2023-05-07T03:56:24;2.37;;;2.17;;
8683;SDS011;4379;59.744;18.206;2023-05-07T03:58:53;2.50;;;1.90;;
8683;SDS011;4379;59.744;18.206;2023-05-07T04:01:20;1.90;;;1.80;;
8683;SDS011;4379;59.744;18.206;2023-05-07T04:03:47;1.63;;;1.53;;
8683;SDS011;4379;59.744;18.206;2023-05-07T04:06:18;1.90;;;1.63;;
8683;SDS011;4379;59.744;18.206;2023-05-07T04:08:45;1.80;;;1.70;;
8683;SDS011;4379;59.744;18.206;2023-05-07T04:11:12;2.00;;;1.90;;
8683;SDS011;4379;59.744;18.206;2023-05-07T04:13:39;1.90;;;1.80;;
8683;SDS011;4379;59.744;18.206;2023-05-07T04:16:06;1.77;;;1.67;;
8683;SDS011;4379;59.744;18.206;2023-05-07T04:18:34;1.30;;;1.30;;
8683;SDS011;4379;59.744;18.206;2023-05-07T04:21:01;1.70;;;1.60;;
8683;SDS011;4379;59.744;18.206;2023-05-07T04:23:28;2.83;;;1.60;;
8683;SDS011;4379;59.744;18.206;2023-05-07T04:25:55;1.80;;;1.70;;
8683;SDS011;4379;59.744;18.206;2023-05-07T04:28:23;1.93;;;1.83;;
8683;SDS011;4379;59.744;18.206;2023-05-07T04:30:51;2.00;;;1.90;;
8683;SDS011;4379;59.744;18.206;2023-05-07T04:33:18;2.47;;;1.90;;
8683;SDS011;4379;59.744;18.206;2023-05-07T04:35:45;2.10;;;2.00;;
8683;SDS011;4379;59.744;18.206;2023-05-07T04:38:12;1.87;;;1.77;;
8683;SDS011;4379;59.744;18.206;2023-05-07T04:40:39;1.73;;;1.63;;
8683;SDS011;4379;59.744;18.206;2023-05-07T04:43:07;1.80;;;1.70;;
8683;SDS011;4379;59.744;18.206;2023-05-07T04:45:35;1.50;;;1.50;;
8683;SDS011;4379;59.744;18.206;2023-05-07T04:48:03;2.00;;;1.90;;
8683;SDS011;4379;59.744;18.206;2023-05-07T04:50:31;2.20;;;2.00;;
8683;SDS011;4379;59.744;18.206;2023-05-07T04:53:00;1.77;;;1.70;;
8683;SDS011;4379;59.744;18.206;2023-05-07T04:55:27;1.90;;;1.80;;
8683;SDS011;4379;59.744;18.206;2023-05-07T04:57:54;1.80;;;1.70;;
8683;SDS011;4379;59.744;18.206;2023-05-07T05:00:23;1.70;;;1.63;;
8683;SDS011;4379;59.744;18.206;2023-05-07T05:02:51;2.00;;;1.90;;
8683;SDS011;4379;59.744;18.206;2023-05-07T05:05:19;2.10;;;2.00;;
8683;SDS011;4379;59.744;18.206;2023-05-07T05:07:46;1.90;;;1.80;;
8683;SDS011;4379;59.744;18.206;2023-05-07T05:10:13;1.93;;;1.83;;
8683;SDS011;4379;59.744;18.206;2023-05-07T05:12:41;1.73;;;1.63;;
8683;SDS011;4379;59.744;18.206;2023-05-07T05:15:08;1.90;;;1.80;;
8683;SDS011;4379;59.744;18.206;2023-05-07T05:17:36;1.58;;;1.48;;
8683;SDS011;4379;59.744;18.206;2023-05-07T05:20:04;1.95;;;1.80;;
8683;SDS011;4379;59.744;18.206;2023-05-07T05:22:32;1.65;;;1.52;;
8683;SDS011;4379;59.744;18.206;2023-05-07T05:24:59;1.73;;;1.63;;
8683;SDS011;4379;59.744;18.206;2023-05-07T05:27:27;1.75;;;1.75;;
8683;SDS011;4379;59.744;18.206;2023-05-07T05:29:55;1.75;;;1.70;;
8683;SDS011;4379;59.744;18.206;2023-05-07T05:32:22;1.60;;;1.60;;
8683;SDS011;4379;59.744;18.206;2023-05-07T05:34:50;2.30;;;1.60;;
8683;SDS011;4379;59.744;18.206;2023-05-07T05:37:17;1.40;;;1.40;;
8683;SDS011;4379;59.744;18.206;2023-05-07T05:39:44;1.60;;;1.60;;
8683;SDS011;4379;59.744;18.206;2023-05-07T05:42:12;1.40;;;1.40;;
8683;SDS011;4379;59.744;18.206;2023-05-07T05:44:39;1.20;;;1.20;;
8683;SDS011;4379;59.744;18.206;2023-05-07T05:47:06;1.40;;;1.30;;
8683;SDS011;4379;59.744;18.206;2023-05-07T05:49:33;1.30;;;1.30;;
8683;SDS011;4379;59.744;18.206;2023-05-07T05:52:01;1.42;;;1.33;;
8683;SDS011;4379;59.744;18.206;2023-05-07T05:54:28;1.20;;;1.20;;
8683;SDS011;4379;59.744;18.206;2023-05-07T05:56:56;1.30;;;1.30;;
8683;SDS011;4379;59.744;18.206;2023-05-07T05:59:23;1.20;;;1.20;;
8683;SDS011;4379;59.744;18.206;2023-05-07T06:01:51;1.45;;;1.35;;
8683;SDS011;4379;59.744;18.206;2023-05-07T06:04:18;1.30;;;1.30;;
8683;SDS011;4379;59.744;18.206;2023-05-07T06:06:45;1.15;;;1.15;;
8683;SDS011;4379;59.744;18.206;2023-05-07T06:09:12;1.02;;;1.02;;
8683;SDS011;4379;59.744;18.206;2023-05-07T06:11:39;1.42;;;1.40;;
8683;SDS011;4379;59.744;18.206;2023-05-07T06:14:07;1.30;;;1.20;;
8683;SDS011;4379;59.744;18.206;2023-05-07T06:16:34;1.20;;;1.20;;
8683;SDS011;4379;59.744;18.206;2023-05-07T06:19:02;0.90;;;0.90;;
8683;SDS011;4379;59.744;18.206;2023-05-07T06:21:30;1.33;;;1.33;;
8683;SDS011;4379;59.744;18.206;2023-05-07T06:23:57;1.13;;;1.13;;
8683;SDS011;4379;59.744;18.206;2023-05-07T06:26:25;1.92;;;1.40;;
8683;SDS011;4379;59.744;18.206;2023-05-07T06:28:52;1.20;;;1.20;;
8683;SDS011;4379;59.744;18.206;2023-05-07T06:31:19;1.33;;;1.33;;
8683;SDS011;4379;59.744;18.206;2023-05-07T06:33:47;1.23;;;1.13;;
8683;SDS011;4379;59.744;18.206;2023-05-07T06:36:15;0.90;;;0.90;;
8683;SDS011;4379;59.744;18.206;2023-05-07T06:38:44;1.27;;;1.10;;
8683;SDS011;4379;59.744;18.206;2023-05-07T06:41:12;1.00;;;1.00;;
8683;SDS011;4379;59.744;18.206;2023-05-07T06:43:39;1.20;;;1.20;;
8683;SDS011;4379;59.744;18.206;2023-05-07T06:46:06;1.40;;;1.30;;
8683;SDS011;4379;59.744;18.206;2023-05-07T06:48:33;1.00;;;1.00;;
8683;SDS011;4379;59.744;18.206;2023-05-07T06:51:00;1.48;;;1.23;;
8683;SDS011;4379;59.744;18.206;2023-05-07T06:53:28;1.30;;;1.30;;
8683;SDS011;4379;59.744;18.206;2023-05-07T06:55:57;1.13;;;1.13;;
8683;SDS011;4379;59.744;18.206;2023-05-07T06:58:24;1.10;;;1.10;;
8683;SDS011;4379;59.744;18.206;2023-05-07T07:00:51;1.30;;;1.30;;
8683;SDS011;4379;59.744;18.206;2023-05-07T07:03:18;1.10;;;1.10;;
8683;SDS011;4379;59.744;18.206;2023-05-07T07:05:46;1.10;;;1.10;;
8683;SDS011;4379;59.744;18.206;2023-05-07T07:08:13;1.90;;;1.33;;
8683;SDS011;4379;59.744;18.206;2023-05-07T07:10:41;1.35;;;1.27;;
8683;SDS011;4379;59.744;18.206;2023-05-07T07:13:11;1.10;;;1.10;;
8683;SDS011;4379;59.744;18.206;2023-05-07T07:15:38;1.40;;;1.40;;
8683;SDS011;4379;59.744;18.206;2023-05-07T07:18:06;1.20;;;1.20;;
8683;SDS011;4379;59.744;18.206;2023-05-07T07:20:33;1.05;;;1.00;;
8683;SDS011;4379;59.744;18.206;2023-05-07T07:23:01;1.10;;;1.10;;
8683;SDS011;4379;59.744;18.206;2023-05-07T07:25:28;1.25;;;1.25;;
8683;SDS011;4379;59.744;18.206;2023-05-07T07:27:55;1.48;;;1.00;;
8683;SDS011;4379;59.744;18.206;2023-05-07T07:30:23;1.48;;;1.30;;
8683;SDS011;4379;59.744;18.206;2023-05-07T07:32:50;1.20;;;1.20;;
8683;SDS011;4379;59.744;18.206;2023-05-07T07:35:19;1.20;;;1.10;;
8683;SDS011;4379;59.744;18.206;2023-05-07T07:37:46;1.05;;;1.05;;
8683;SDS011;4379;59.744;18.206;2023-05-07T07:40:20;0.82;;;0.80;;
8683;SDS011;4379;59.744;18.206;2023-05-07T07:42:47;1.10;;;1.10;;
8683;SDS011;4379;59.744;18.206;2023-05-07T07:45:14;1.00;;;1.00;;
8683;SDS011;4379;59.744;18.206;2023-05-07T07:47:41;1.48;;;0.90;;
8683;SDS011;4379;59.744;18.206;2023-05-07T07:50:09;1.23;;;1.23;;
8683;SDS011;4379;59.744;18.206;2023-05-07T07:52:40;1.10;;;1.10;;
8683;SDS011;4379;59.744;18.206;2023-05-07T07:55:10;1.27;;;1.27;;
8683;SDS011;4379;59.744;18.206;2023-05-07T07:57:37;1.40;;;1.05;;
8683;SDS011;4379;59.744;18.206;2023-05-07T08:00:04;1.25;;;1.00;;
8683;SDS011;4379;59.744;18.206;2023-05-07T08:02:33;1.33;;;1.23;;
8683;SDS011;4379;59.744;18.206;2023-05-07T08:05:01;1.23;;;1.10;;
8683;SDS011;4379;59.744;18.206;2023-05-07T08:07:28;1.48;;;1.38;;
8683;SDS011;4379;59.744;18.206;2023-05-07T08:09:56;1.27;;;1.20;;
8683;SDS011;4379;59.744;18.206;2023-05-07T08:12:24;1.02;;;1.02;;
8683;SDS011;4379;59.744;18.206;2023-05-07T08:14:52;1.30;;;1.30;;
8683;SDS011;4379;59.744;18.206;2023-05-07T08:17:19;1.40;;;1.40;;
8683;SDS011;4379;59.744;18.206;2023-05-07T08:19:48;1.70;;;1.33;;
8683;SDS011;4379;59.744;18.206;2023-05-07T08:22:16;1.20;;;1.20;;
8683;SDS011;4379;59.744;18.206;2023-05-07T08:24:44;1.42;;;1.15;;
8683;SDS011;4379;59.744;18.206;2023-05-07T08:27:12;1.00;;;1.00;;
8683;SDS011;4379;59.744;18.206;2023-05-07T08:29:39;1.10;;;1.10;;
8683;SDS011;4379;59.744;18.206;2023-05-07T08:32:06;1.38;;;1.25;;
8683;SDS011;4379;59.744;18.206;2023-05-07T08:34:33;1.10;;;1.10;;
8683;SDS011;4379;59.744;18.206;2023-05-07T08:37:01;1.40;;;1.30;;
8683;SDS011;4379;59.744;18.206;2023-05-07T08:39:30;1.02;;;1.02;;
8683;SDS011;4379;59.744;18.206;2023-05-07T08:41:57;1.25;;;1.10;;
8683;SDS011;4379;59.744;18.206;2023-05-07T08:44:28;1.13;;;1.10;;
8683;SDS011;4379;59.744;18.206;2023-05-07T08:47:00;1.92;;;1.08;;
8683;SDS011;4379;59.744;18.206;2023-05-07T08:49:28;1.10;;;1.10;;
8683;SDS011;4379;59.744;18.206;2023-05-07T08:51:55;1.10;;;1.10;;
8683;SDS011;4379;59.744;18.206;2023-05-07T08:54:23;1.65;;;1.30;;
8683;SDS011;4379;59.744;18.206;2023-05-07T08:56:52;1.00;;;1.00;;
8683;SDS011;4379;59.744;18.206;2023-05-07T08:59:19;1.10;;;1.10;;
8683;SDS011;4379;59.744;18.206;2023-05-07T09:01:46;1.30;;;1.13;;
8683;SDS011;4379;59.744;18.206;2023-05-07T09:04:14;1.08;;;0.90;;
8683;SDS011;4379;59.744;18.206;2023-05-07T09:06:41;0.90;;;0.90;;
8683;SDS011;4379;59.744;18.206;2023-05-07T09:09:08;1.05;;;1.05;;
8683;SDS011;4379;59.744;18.206;2023-05-07T09:11:35;0.90;;;0.90;;
8683;SDS011;4379;59.744;18.206;2023-05-07T09:14:02;1.10;;;1.10;;
8683;SDS011;4379;59.744;18.206;2023-05-07T09:16:31;1.00;;;1.00;;
8683;SDS011;4379;59.744;18.206;2023-05-07T09:18:59;1.35;;;1.25;;
8683;SDS011;4379;59.744;18.206;2023-05-07T09:21:27;1.58;;;1.33;;
8683;SDS011;4379;59.744;18.206;2023-05-07T09:23:55;1.05;;;1.02;;
8683;SDS011;4379;59.744;18.206;2023-05-07T09:26:23;1.00;;;1.00;;
8683;SDS011;4379;59.744;18.206;2023-05-07T09:28:51;1.30;;;1.10;;
8683;SDS011;4379;59.744;18.206;2023-05-07T09:31:18;1.10;;;1.10;;
8683;SDS011;4379;59.744;18.206;2023-05-07T09:33:47;1.00;;;1.00;;
8683;SDS011;4379;59.744;18.206;2023-05-07T09:36:15;1.20;;;1.20;;
8683;SDS011;4379;59.744;18.206;2023-05-07T09:38:45;1.10;;;1.10;;
8683;SDS011;4379;59.744;18.206;2023-05-07T09:41:17;1.20;;;1.20;;
8683;SDS011;4379;59.744;18.206;2023-05-07T09:43:45;1.58;;;1.00;;
8683;SDS011;4379;59.744;18.206;2023-05-07T09:46:19;1.00;;;0.88;;
8683;SDS011;4379;59.744;18.206;2023-05-07T09:48:55;1.00;;;1.00;;
8683;SDS011;4379;59.744;18.206;2023-05-07T09:51:28;1.17;;;1.05;;
8683;SDS011;4379;59.744;18.206;2023-05-07T09:54:04;1.40;;;1.30;;
8683;SDS011;4379;59.744;18.206;2023-05-07T09:56:33;0.90;;;0.90;;
8683;SDS011;4379;59.744;18.206;2023-05-07T09:59:00;1.00;;;1.00;;
8683;SDS011;4379;59.744;18.206;2023-05-07T10:01:30;1.45;;;1.30;;
8683;SDS011;4379;59.744;18.206;2023-05-07T10:03:58;1.08;;;1.08;;
8683;SDS011;4379;59.744;18.206;2023-05-07T10:06:26;1.10;;;1.10;;
8683;SDS011;4379;59.744;18.206;2023-05-07T10:08:54;1.30;;;1.20;;
8683;SDS011;4379;59.744;18.206;2023-05-07T10:11:22;1.10;;;1.10;;
8683;SDS011;4379;59.744;18.206;2023-05-07T10:13:50;1.20;;;1.20;;
8683;SDS011;4379;59.744;18.206;2023-05-07T10:16:20;1.00;;;1.00;;
8683;SDS011;4379;59.744;18.206;2023-05-07T10:18:52;1.10;;;1.10;;
8683;SDS011;4379;59.744;18.206;2023-05-07T10:21:21;1.40;;;1.10;;
8683;SDS011;4379;59.744;18.206;2023-05-07T10:23:51;1.27;;;1.23;;
8683;SDS011;4379;59.744;18.206;2023-05-07T10:26:25;1.23;;;1.13;;
8683;SDS011;4379;59.744;18.206;2023-05-07T10:28:58;1.42;;;1.30;;
8683;SDS011;4379;59.744;18.206;2023-05-07T10:34:13;1.23;;;1.00;;
8683;SDS011;4379;59.744;18.206;2023-05-07T10:36:46;1.38;;;1.27;;
8683;SDS011;4379;59.744;18.206;2023-05-07T10:39:15;1.15;;;1.10;;
8683;SDS011;4379;59.744;18.206;2023-05-07T10:41:42;1.40;;;1.30;;
8683;SDS011;4379;59.744;18.206;2023-05-07T10:44:09;1.10;;;1.10;;
8683;SDS011;4379;59.744;18.206;2023-05-07T10:46:36;1.05;;;1.05;;
8683;SDS011;4379;59.744;18.206;2023-05-07T10:51:34;1.38;;;1.30;;
8683;SDS011;4379;59.744;18.206;2023-05-07T10:56:41;1.73;;;1.33;;
8683;SDS011;4379;59.744;18.206;2023-05-07T11:01:58;1.10;;;1.10;;
8683;SDS011;4379;59.744;18.206;2023-05-07T11:04:28;1.30;;;1.30;;
8683;SDS011;4379;59.744;18.206;2023-05-07T11:07:40;1.48;;;1.38;;
8683;SDS011;4379;59.744;18.206;2023-05-07T11:15:05;1.23;;;1.13;;
8683;SDS011;4379;59.744;18.206;2023-05-07T11:17:34;1.20;;;1.20;;
8683;SDS011;4379;59.744;18.206;2023-05-07T11:20:18;1.00;;;1.00;;
8683;SDS011;4379;59.744;18.206;2023-05-07T11:22:49;1.17;;;1.17;;
8683;SDS011;4379;59.744;18.206;2023-05-07T11:25:19;1.08;;;1.08;;
8683;SDS011;4379;59.744;18.206;2023-05-07T11:27:46;1.00;;;1.00;;
8683;SDS011;4379;59.744;18.206;2023-05-07T11:30:18;1.10;;;1.10;;
8683;SDS011;4379;59.744;18.206;2023-05-07T11:32:47;1.20;;;1.20;;
8683;SDS011;4379;59.744;18.206;2023-05-07T11:35:15;1.35;;;1.25;;
8683;SDS011;4379;59.744;18.206;2023-05-07T11:37:43;1.10;;;1.10;;
8683;SDS011;4379;59.744;18.206;2023-05-07T11:40:12;1.30;;;1.20;;
8683;SDS011;4379;59.744;18.206;2023-05-07T11:42:40;1.13;;;1.10;;
8683;SDS011;4379;59.744;18.206;2023-05-07T11:45:11;1.08;;;1.08;;
8683;SDS011;4379;59.744;18.206;2023-05-07T11:47:41;1.20;;;1.13;;
8683;SDS011;4379;59.744;18.206;2023-05-07T11:50:08;1.33;;;1.23;;
8683;SDS011;4379;59.744;18.206;2023-05-07T11:52:37;1.50;;;1.30;;
8683;SDS011;4379;59.744;18.206;2023-05-07T11:55:06;1.42;;;1.33;;
8683;SDS011;4379;59.744;18.206;2023-05-07T11:57:34;1.08;;;1.08;;
8683;SDS011;4379;59.744;18.206;2023-05-07T12:00:02;1.25;;;1.25;;
8683;SDS011;4379;59.744;18.206;2023-05-07T12:02:33;1.10;;;1.10;;
8683;SDS011;4379;59.744;18.206;2023-05-07T12:05:01;1.10;;;1.10;;
8683;SDS011;4379;59.744;18.206;2023-05-07T12:07:29;2.15;;;1.30;;
8683;SDS011;4379;59.744;18.206;2023-05-07T12:09:56;1.30;;;1.20;;
8683;SDS011;4379;59.744;18.206;2023-05-07T12:12:23;1.50;;;1.40;;
8683;SDS011;4379;59.744;18.206;2023-05-07T12:14:50;1.20;;;1.20;;
8683;SDS011;4379;59.744;18.206;2023-05-07T12:17:18;1.48;;;1.38;;
8683;SDS011;4379;59.744;18.206;2023-05-07T12:19:46;1.10;;;1.10;;
8683;SDS011;4379;59.744;18.206;2023-05-07T12:22:14;1.40;;;1.30;;
8683;SDS011;4379;59.744;18.206;2023-05-07T12:24:48;1.50;;;1.25;;
8683;SDS011;4379;59.744;18.206;2023-05-07T12:27:23;1.50;;;1.02;;
8683;SDS011;4379;59.744;18.206;2023-05-07T12:29:50;1.38;;;1.20;;
8683;SDS011;4379;59.744;18.206;2023-05-07T12:32:18;1.25;;;1.15;;
8683;SDS011;4379;59.744;18.206;2023-05-07T12:34:51;1.77;;;1.20;;
8683;SDS011;4379;59.744;18.206;2023-05-07T12:37:23;1.48;;;1.42;;
8683;SDS011;4379;59.744;18.206;2023-05-07T12:40:04;1.30;;;1.30;;
8683;SDS011;4379;59.744;18.206;2023-05-07T12:42:35;1.20;;;1.20;;
8683;SDS011;4379;59.744;18.206;2023-05-07T12:45:07;4.13;;;1.38;;
8683;SDS011;4379;59.744;18.206;2023-05-07T12:47:39;1.27;;;1.17;;
8683;SDS011;4379;59.744;18.206;2023-05-07T12:50:09;1.40;;;1.30;;
8683;SDS011;4379;59.744;18.206;2023-05-07T12:52:37;1.23;;;1.13;;
8683;SDS011;4379;59.744;18.206;2023-05-07T12:55:05;1.30;;;1.20;;
8683;SDS011;4379;59.744;18.206;2023-05-07T12:57:39;1.65;;;1.40;;
8683;SDS011;4379;59.744;18.206;2023-05-07T13:00:37;1.35;;;1.27;;
8683;SDS011;4379;59.744;18.206;2023-05-07T13:03:05;1.50;;;1.40;;
8683;SDS011;4379;59.744;18.206;2023-05-07T13:05:32;1.98;;;1.20;;
8683;SDS011;4379;59.744;18.206;2023-05-07T13:08:00;2.17;;;1.13;;
8683;SDS011;4379;59.744;18.206;2023-05-07T13:10:27;1.15;;;1.10;;
8683;SDS011;4379;59.744;18.206;2023-05-07T13:12:55;1.10;;;1.10;;
8683;SDS011;4379;59.744;18.206;2023-05-07T13:15:22;1.10;;;1.10;;
8683;SDS011;4379;59.744;18.206;2023-05-07T13:17:49;1.52;;;1.42;;
8683;SDS011;4379;59.744;18.206;2023-05-07T13:20:17;1.75;;;1.20;;
8683;SDS011;4379;59.744;18.206;2023-05-07T13:22:45;1.10;;;1.10;;
8683;SDS011;4379;59.744;18.206;2023-05-07T13:25:12;2.05;;;1.48;;
8683;SDS011;4379;59.744;18.206;2023-05-07T13:27:40;2.15;;;1.30;;
8683;SDS011;4379;59.744;18.206;2023-05-07T13:30:07;0.90;;;0.90;;
8683;SDS011;4379;59.744;18.206;2023-05-07T13:32:35;1.20;;;1.20;;
8683;SDS011;4379;59.744;18.206;2023-05-07T13:35:02;1.73;;;1.27;;
8683;SDS011;4379;59.744;18.206;2023-05-07T13:37:32;1.67;;;1.15;;
8683;SDS011;4379;59.744;18.206;2023-05-07T13:40:01;1.73;;;1.48;;
8683;SDS011;4379;59.744;18.206;2023-05-07T13:42:29;3.75;;;1.20;;
8683;SDS011;4379;59.744;18.206;2023-05-07T13:44:57;1.55;;;1.30;;
8683;SDS011;4379;59.744;18.206;2023-05-07T13:47:25;0.95;;;0.93;;
8683;SDS011;4379;59.744;18.206;2023-05-07T13:49:52;1.25;;;1.10;;
8683;SDS011;4379;59.744;18.206;2023-05-07T13:52:20;1.00;;;1.00;;
8683;SDS011;4379;59.744;18.206;2023-05-07T13:54:47;1.92;;;1.30;;
8683;SDS011;4379;59.744;18.206;2023-05-07T13:57:14;1.00;;;1.00;;
8683;SDS011;4379;59.744;18.206;2023-05-07T13:59:42;2.40;;;1.63;;
8683;SDS011;4379;59.744;18.206;2023-05-07T14:02:09;1.30;;;1.20;;
8683;SDS011;4379;59.744;18.206;2023-05-07T14:04:37;1.60;;;1.50;;
8683;SDS011;4379;59.744;18.206;2023-05-07T14:07:04;1.50;;;1.40;;
8683;SDS011;4379;59.744;18.206;2023-05-07T14:09:31;1.13;;;1.13;;
8683;SDS011;4379;59.744;18.206;2023-05-07T14:11:59;1.40;;;1.33;;
8683;SDS011;4379;59.744;18.206;2023-05-07T14:14:27;1.42;;;1.33;;
8683;SDS011;4379;59.744;18.206;2023-05-07T14:16:54;1.95;;;1.42;;
8683;SDS011;4379;59.744;18.206;2023-05-07T14:19:22;1.48;;;1.38;;
8683;SDS011;4379;59.744;18.206;2023-05-07T14:21:49;1.58;;;1.48;;
8683;SDS011;4379;59.744;18.206;2023-05-07T14:24:17;3.50;;;1.40;;
8683;SDS011;4379;59.744;18.206;2023-05-07T14:27:02;1.90;;;1.40;;
8683;SDS011;4379;59.744;18.206;2023-05-07T14:29:29;1.30;;;1.25;;
8683;SDS011;4379;59.744;18.206;2023-05-07T14:31:57;1.33;;;1.33;;
8683;SDS011;4379;59.744;18.206;2023-05-07T14:34:24;1.20;;;1.20;;
8683;SDS011;4379;59.744;18.206;2023-05-07T14:36:51;1.42;;;1.33;;
8683;SDS011;4379;59.744;18.206;2023-05-07T14:39:18;1.58;;;1.48;;
8683;SDS011;4379;59.744;18.206;2023-05-07T14:41:46;1.42;;;1.20;;
8683;SDS011;4379;59.744;18.206;2023-05-07T14:44:14;1.38;;;1.20;;
8683;SDS011;4379;59.744;18.206;2023-05-07T14:46:41;1.17;;;1.17;;
8683;SDS011;4379;59.744;18.206;2023-05-07T14:49:08;1.48;;;1.38;;
8683;SDS011;4379;59.744;18.206;2023-05-07T14:51:44;1.52;;;1.30;;
8683;SDS011;4379;59.744;18.206;2023-05-07T14:54:15;1.40;;;1.30;;
8683;SDS011;4379;59.744;18.206;2023-05-07T14:56:42;1.42;;;1.33;;
8683;SDS011;4379;59.744;18.206;2023-05-07T14:59:10;1.30;;;1.30;;
8683;SDS011;4379;59.744;18.206;2023-05-07T15:01:38;1.25;;;1.23;;
8683;SDS011;4379;59.744;18.206;2023-05-07T15:04:09;4.00;;;1.30;;
8683;SDS011;4379;59.744;18.206;2023-05-07T15:06:36;1.25;;;1.23;;
8683;SDS011;4379;59.744;18.206;2023-05-07T15:09:04;1.30;;;1.23;;
8683;SDS011;4379;59.744;18.206;2023-05-07T15:11:31;1.63;;;1.30;;
8683;SDS011;4379;59.744;18.206;2023-05-07T15:14:01;1.10;;;1.10;;
8683;SDS011;4379;59.744;18.206;2023-05-07T15:16:29;2.03;;;1.35;;
8683;SDS011;4379;59.744;18.206;2023-05-07T15:18:56;1.05;;;1.05;;
8683;SDS011;4379;59.744;18.206;2023-05-07T15:21:23;1.35;;;1.20;;
8683;SDS011;4379;59.744;18.206;2023-05-07T15:23:53;3.60;;;1.30;;